sensor_id;sensor_type;location;lat;lon;timestamp;pressure;altitude;pressure_sealevel;temperature;humidity
56182;BME280;51963;46.052;14.544;2023-05-21T00:02:17;98083.94;;;14.89;100.00
56182;BME280;51963;46.052;14.544;2023-05-21T00:04:43;98102.91;;;14.74;100.00
56182;BME280;51963;46.052;14.544;2023-05-21T00:07:10;98104.50;;;14.57;100.00
56182;BME280;51963;46.052;14.544;2023-05-21T00:09:36;98096.66;;;14.43;100.00
56182;BME280;51963;46.052;14.544;2023-05-21T00:12:08;98109.34;;;14.41;100.00
56182;BME280;51963;46.052;14.544;2023-05-21T00:14:34;98098.34;;;14.37;100.00
56182;BME280;51963;46.052;14.544;2023-05-21T00:17:00;98097.97;;;14.34;100.00
56182;BME280;51963;46.052;14.544;2023-05-21T00:19:26;98095.16;;;14.29;100.00
56182;BME280;51963;46.052;14.544;2023-05-21T00:21:52;98100.31;;;14.23;100.00
56182;BME280;51963;46.052;14.544;2023-05-21T00:24:17;98086.66;;;14.20;100.00
56182;BME280;51963;46.052;14.544;2023-05-21T00:26:43;98080.81;;;14.30;100.00
56182;BME280;51963;46.052;14.544;2023-05-21T00:29:09;98081.00;;;14.53;100.00
56182;BME280;51963;46.052;14.544;2023-05-21T00:31:35;98090.78;;;14.78;100.00
56182;BME280;51963;46.052;14.544;2023-05-21T00:34:00;98067.19;;;14.45;100.00
56182;BME280;51963;46.052;14.544;2023-05-21T00:36:27;98083.00;;;14.40;100.00
56182;BME280;51963;46.052;14.544;2023-05-21T00:38:52;98064.72;;;14.43;100.00
56182;BME280;51963;46.052;14.544;2023-05-21T00:41:18;98085.06;;;14.37;100.00
56182;BME280;51963;46.052;14.544;2023-05-21T00:43:44;98076.97;;;14.26;100.00
56182;BME280;51963;46.052;14.544;2023-05-21T00:46:16;98085.22;;;14.17;100.00
56182;BME280;51963;46.052;14.544;2023-05-21T00:48:46;98067.38;;;14.25;100.00
56182;BME280;51963;46.052;14.544;2023-05-21T00:51:16;98075.94;;;14.27;100.00
56182;BME280;51963;46.052;14.544;2023-05-21T00:53:44;98068.25;;;14.18;100.00
56182;BME280;51963;46.052;14.544;2023-05-21T00:56:10;98078.94;;;14.12;100.00
56182;BME280;51963;46.052;14.544;2023-05-21T00:58:38;98077.47;;;13.90;100.00
56182;BME280;51963;46.052;14.544;2023-05-21T01:01:04;98079.63;;;13.75;100.00
56182;BME280;51963;46.052;14.544;2023-05-21T01:03:32;98072.34;;;13.63;100.00
56182;BME280;51963;46.052;14.544;2023-05-21T01:06:06;98076.03;;;13.62;100.00
56182;BME280;51963;46.052;14.544;2023-05-21T01:08:33;98069.31;;;13.60;100.00
56182;BME280;51963;46.052;14.544;2023-05-21T01:11:01;98060.59;;;13.53;100.00
56182;BME280;51963;46.052;14.544;2023-05-21T01:13:28;98051.25;;;13.37;100.00
56182;BME280;51963;46.052;14.544;2023-05-21T01:15:55;98070.63;;;13.44;100.00
56182;BME280;51963;46.052;14.544;2023-05-21T01:18:22;98060.66;;;13.32;100.00
56182;BME280;51963;46.052;14.544;2023-05-21T01:20:48;98066.63;;;13.21;100.00
56182;BME280;51963;46.052;14.544;2023-05-21T01:23:15;98058.50;;;13.09;100.00
56182;BME280;51963;46.052;14.544;2023-05-21T01:25:42;98063.25;;;13.00;100.00
56182;BME280;51963;46.052;14.544;2023-05-21T01:28:09;98059.22;;;12.91;100.00
56182;BME280;51963;46.052;14.544;2023-05-21T01:30:36;98062.91;;;12.90;100.00
56182;BME280;51963;46.052;14.544;2023-05-21T01:33:06;98044.97;;;12.79;100.00
56182;BME280;51963;46.052;14.544;2023-05-21T01:35:45;98063.31;;;12.80;100.00
56182;BME280;51963;46.052;14.544;2023-05-21T01:38:29;98061.94;;;12.71;100.00
56182;BME280;51963;46.052;14.544;2023-05-21T01:41:17;98053.59;;;12.67;100.00
56182;BME280;51963;46.052;14.544;2023-05-21T01:43:45;98045.44;;;12.62;100.00
56182;BME280;51963;46.052;14.544;2023-05-21T01:46:12;98049.47;;;12.78;100.00
56182;BME280;51963;46.052;14.544;2023-05-21T01:48:40;98038.94;;;12.58;100.00
56182;BME280;51963;46.052;14.544;2023-05-21T01:51:07;98037.53;;;12.49;100.00
56182;BME280;51963;46.052;14.544;2023-05-21T01:53:33;98035.06;;;12.47;100.00
56182;BME280;51963;46.052;14.544;2023-05-21T01:55:59;98032.03;;;12.43;100.00
56182;BME280;51963;46.052;14.544;2023-05-21T01:58:25;98026.75;;;12.37;100.00
56182;BME280;51963;46.052;14.544;2023-05-21T02:00:51;98041.44;;;12.39;100.00
56182;BME280;51963;46.052;14.544;2023-05-21T02:03:19;98033.47;;;12.39;100.00
56182;BME280;51963;46.052;14.544;2023-05-21T02:05:46;98028.59;;;12.36;100.00
56182;BME280;51963;46.052;14.544;2023-05-21T02:08:12;98007.22;;;12.17;100.00
56182;BME280;51963;46.052;14.544;2023-05-21T02:10:39;98024.94;;;12.24;100.00
56182;BME280;51963;46.052;14.544;2023-05-21T02:13:07;98009.06;;;12.10;100.00
56182;BME280;51963;46.052;14.544;2023-05-21T02:15:33;98019.44;;;12.12;100.00
56182;BME280;51963;46.052;14.544;2023-05-21T02:17:59;98018.66;;;12.11;100.00
56182;BME280;51963;46.052;14.544;2023-05-21T02:20:25;98016.59;;;12.13;100.00
56182;BME280;51963;46.052;14.544;2023-05-21T02:22:51;98014.56;;;12.09;100.00
56182;BME280;51963;46.052;14.544;2023-05-21T02:25:18;98020.69;;;12.09;100.00
56182;BME280;51963;46.052;14.544;2023-05-21T02:27:47;98010.91;;;12.03;100.00
56182;BME280;51963;46.052;14.544;2023-05-21T02:30:17;98023.53;;;12.14;100.00
56182;BME280;51963;46.052;14.544;2023-05-21T02:32:43;98025.56;;;11.99;100.00
56182;BME280;51963;46.052;14.544;2023-05-21T02:35:11;98025.53;;;11.92;100.00
56182;BME280;51963;46.052;14.544;2023-05-21T02:37:38;98003.97;;;11.62;100.00
56182;BME280;51963;46.052;14.544;2023-05-21T02:40:06;98021.06;;;11.72;100.00
56182;BME280;51963;46.052;14.544;2023-05-21T02:42:33;98035.75;;;11.75;100.00
56182;BME280;51963;46.052;14.544;2023-05-21T02:44:59;98027.78;;;11.68;100.00
56182;BME280;51963;46.052;14.544;2023-05-21T02:47:25;98019.03;;;11.61;100.00
56182;BME280;51963;46.052;14.544;2023-05-21T02:49:51;98023.94;;;11.57;100.00
56182;BME280;51963;46.052;14.544;2023-05-21T02:52:18;98020.25;;;11.45;100.00
56182;BME280;51963;46.052;14.544;2023-05-21T02:54:45;98040.22;;;11.54;100.00
56182;BME280;51963;46.052;14.544;2023-05-21T02:57:11;98032.69;;;11.51;100.00
56182;BME280;51963;46.052;14.544;2023-05-21T02:59:37;98028.81;;;11.47;100.00
56182;BME280;51963;46.052;14.544;2023-05-21T03:02:03;98030.44;;;11.48;100.00
56182;BME280;51963;46.052;14.544;2023-05-21T03:04:28;98013.31;;;11.30;100.00
56182;BME280;51963;46.052;14.544;2023-05-21T03:06:55;98032.88;;;11.50;100.00
56182;BME280;51963;46.052;14.544;2023-05-21T03:09:21;98035.72;;;11.48;100.00
56182;BME280;51963;46.052;14.544;2023-05-21T03:11:48;98027.97;;;11.47;100.00
56182;BME280;51963;46.052;14.544;2023-05-21T03:14:14;98026.56;;;11.44;100.00
56182;BME280;51963;46.052;14.544;2023-05-21T03:16:41;98030.22;;;11.43;100.00
56182;BME280;51963;46.052;14.544;2023-05-21T03:19:09;98024.72;;;11.38;100.00
56182;BME280;51963;46.052;14.544;2023-05-21T03:21:35;98024.28;;;11.27;100.00
56182;BME280;51963;46.052;14.544;2023-05-21T03:24:01;98034.06;;;11.27;100.00
56182;BME280;51963;46.052;14.544;2023-05-21T03:26:28;98024.47;;;11.19;100.00
56182;BME280;51963;46.052;14.544;2023-05-21T03:28:55;98043.00;;;11.19;100.00
56182;BME280;51963;46.052;14.544;2023-05-21T03:31:22;98037.31;;;11.22;100.00
56182;BME280;51963;46.052;14.544;2023-05-21T03:34:05;98025.28;;;11.13;100.00
56182;BME280;51963;46.052;14.544;2023-05-21T03:36:33;98048.13;;;11.34;100.00
56182;BME280;51963;46.052;14.544;2023-05-21T03:38:58;98054.63;;;11.38;100.00
56182;BME280;51963;46.052;14.544;2023-05-21T03:41:25;98047.94;;;11.36;100.00
56182;BME280;51963;46.052;14.544;2023-05-21T03:43:56;98056.47;;;11.38;100.00
56182;BME280;51963;46.052;14.544;2023-05-21T03:46:26;98045.47;;;11.27;100.00
56182;BME280;51963;46.052;14.544;2023-05-21T03:49:01;98056.66;;;11.36;100.00
56182;BME280;51963;46.052;14.544;2023-05-21T03:51:29;98069.50;;;11.33;100.00
56182;BME280;51963;46.052;14.544;2023-05-21T03:53:57;98056.47;;;11.38;100.00
56182;BME280;51963;46.052;14.544;2023-05-21T03:56:24;98065.88;;;11.47;100.00
56182;BME280;51963;46.052;14.544;2023-05-21T03:58:53;98060.16;;;11.50;100.00
56182;BME280;51963;46.052;14.544;2023-05-21T04:01:18;98055.91;;;11.49;100.00
56182;BME280;51963;46.052;14.544;2023-05-21T04:03:46;98063.44;;;11.52;100.00
56182;BME280;51963;46.052;14.544;2023-05-21T04:06:13;98068.72;;;11.52;100.00
56182;BME280;51963;46.052;14.544;2023-05-21T04:08:39;98075.66;;;11.60;100.00
56182;BME280;51963;46.052;14.544;2023-05-21T04:11:05;98078.09;;;11.62;100.00
56182;BME280;51963;46.052;14.544;2023-05-21T04:13:31;98081.56;;;11.62;100.00
56182;BME280;51963;46.052;14.544;2023-05-21T04:15:57;98078.31;;;11.67;100.00
56182;BME280;51963;46.052;14.544;2023-05-21T04:18:22;98079.34;;;11.66;100.00
56182;BME280;51963;46.052;14.544;2023-05-21T04:20:51;98084.44;;;11.74;100.00
56182;BME280;51963;46.052;14.544;2023-05-21T04:23:17;98078.53;;;11.72;100.00
56182;BME280;51963;46.052;14.544;2023-05-21T04:25:43;98074.88;;;11.86;100.00
56182;BME280;51963;46.052;14.544;2023-05-21T04:28:09;98081.41;;;11.91;100.00
56182;BME280;51963;46.052;14.544;2023-05-21T04:30:35;98086.28;;;11.94;100.00
56182;BME280;51963;46.052;14.544;2023-05-21T04:33:02;98087.50;;;11.98;100.00
56182;BME280;51963;46.052;14.544;2023-05-21T04:35:28;98083.84;;;11.99;100.00
56182;BME280;51963;46.052;14.544;2023-05-21T04:37:53;98083.06;;;12.05;100.00
56182;BME280;51963;46.052;14.544;2023-05-21T04:40:19;98090.81;;;12.13;100.00
56182;BME280;51963;46.052;14.544;2023-05-21T04:42:49;98103.63;;;12.23;100.00
56182;BME280;51963;46.052;14.544;2023-05-21T04:45:16;98094.06;;;12.29;100.00
56182;BME280;51963;46.052;14.544;2023-05-21T04:47:44;98093.66;;;12.32;100.00
56182;BME280;51963;46.052;14.544;2023-05-21T04:50:10;98099.31;;;12.49;100.00
56182;BME280;51963;46.052;14.544;2023-05-21T04:52:38;98084.44;;;12.55;100.00
56182;BME280;51963;46.052;14.544;2023-05-21T04:55:06;98096.81;;;12.74;100.00
56182;BME280;51963;46.052;14.544;2023-05-21T04:57:32;98096.56;;;12.96;100.00
56182;BME280;51963;46.052;14.544;2023-05-21T04:59:59;98097.94;;;13.05;100.00
56182;BME280;51963;46.052;14.544;2023-05-21T05:02:26;98091.97;;;13.17;100.00
56182;BME280;51963;46.052;14.544;2023-05-21T05:04:51;98093.19;;;13.21;100.00
56182;BME280;51963;46.052;14.544;2023-05-21T05:07:17;98089.69;;;13.27;100.00
56182;BME280;51963;46.052;14.544;2023-05-21T05:09:43;98102.50;;;13.37;100.00
56182;BME280;51963;46.052;14.544;2023-05-21T05:12:09;98107.81;;;13.44;100.00
56182;BME280;51963;46.052;14.544;2023-05-21T05:14:35;98087.97;;;13.40;100.00
56182;BME280;51963;46.052;14.544;2023-05-21T05:17:00;98109.00;;;13.55;100.00
56182;BME280;51963;46.052;14.544;2023-05-21T05:19:27;98097.69;;;13.66;100.00
56182;BME280;51963;46.052;14.544;2023-05-21T05:21:52;98082.97;;;13.63;100.00
56182;BME280;51963;46.052;14.544;2023-05-21T05:24:21;98083.81;;;13.64;100.00
56182;BME280;51963;46.052;14.544;2023-05-21T05:26:46;98095.13;;;13.78;100.00
56182;BME280;51963;46.052;14.544;2023-05-21T05:29:12;98079.09;;;13.91;100.00
56182;BME280;51963;46.052;14.544;2023-05-21T05:31:38;98081.97;;;13.90;100.00
56182;BME280;51963;46.052;14.544;2023-05-21T05:34:04;98092.59;;;14.15;100.00
56182;BME280;51963;46.052;14.544;2023-05-21T05:36:30;98087.00;;;14.23;100.00
56182;BME280;51963;46.052;14.544;2023-05-21T05:38:56;98083.75;;;14.21;100.00
56182;BME280;51963;46.052;14.544;2023-05-21T05:41:22;98091.84;;;14.33;100.00
56182;BME280;51963;46.052;14.544;2023-05-21T05:43:48;98100.34;;;14.42;100.00
56182;BME280;51963;46.052;14.544;2023-05-21T05:46:15;98090.88;;;14.46;100.00
56182;BME280;51963;46.052;14.544;2023-05-21T05:48:41;98078.78;;;14.50;100.00
56182;BME280;51963;46.052;14.544;2023-05-21T05:51:07;98085.03;;;14.81;100.00
56182;BME280;51963;46.052;14.544;2023-05-21T05:53:34;98089.69;;;14.86;100.00
56182;BME280;51963;46.052;14.544;2023-05-21T05:56:00;98087.63;;;14.88;100.00
56182;BME280;51963;46.052;14.544;2023-05-21T05:58:26;98090.72;;;15.04;100.00
56182;BME280;51963;46.052;14.544;2023-05-21T06:01:09;98090.09;;;15.20;100.00
56182;BME280;51963;46.052;14.544;2023-05-21T06:03:36;98074.28;;;15.25;100.00
56182;BME280;51963;46.052;14.544;2023-05-21T06:06:09;98089.31;;;15.50;100.00
56182;BME280;51963;46.052;14.544;2023-05-21T06:08:36;98082.59;;;15.60;100.00
56182;BME280;51963;46.052;14.544;2023-05-21T06:11:02;98085.41;;;15.77;100.00
56182;BME280;51963;46.052;14.544;2023-05-21T06:13:28;98086.56;;;16.00;100.00
56182;BME280;51963;46.052;14.544;2023-05-21T06:15:54;98072.75;;;15.91;100.00
56182;BME280;51963;46.052;14.544;2023-05-21T06:18:20;98074.16;;;16.05;100.00
56182;BME280;51963;46.052;14.544;2023-05-21T06:20:46;98069.88;;;16.16;100.00
56182;BME280;51963;46.052;14.544;2023-05-21T06:23:12;98069.06;;;16.27;100.00
56182;BME280;51963;46.052;14.544;2023-05-21T06:25:39;98070.34;;;16.37;100.00
56182;BME280;51963;46.052;14.544;2023-05-21T06:28:06;98057.81;;;16.49;100.00
56182;BME280;51963;46.052;14.544;2023-05-21T06:30:32;98054.06;;;16.74;100.00
56182;BME280;51963;46.052;14.544;2023-05-21T06:32:59;98062.38;;;16.90;100.00
56182;BME280;51963;46.052;14.544;2023-05-21T06:35:25;98062.72;;;17.05;100.00
56182;BME280;51963;46.052;14.544;2023-05-21T06:37:51;98057.00;;;17.13;100.00
56182;BME280;51963;46.052;14.544;2023-05-21T06:40:17;98063.28;;;17.36;100.00
56182;BME280;51963;46.052;14.544;2023-05-21T06:42:44;98069.78;;;17.40;100.00
56182;BME280;51963;46.052;14.544;2023-05-21T06:45:19;98064.34;;;17.52;100.00
56182;BME280;51963;46.052;14.544;2023-05-21T06:47:45;98065.66;;;17.67;100.00
56182;BME280;51963;46.052;14.544;2023-05-21T06:50:11;98045.09;;;17.67;100.00
56182;BME280;51963;46.052;14.544;2023-05-21T06:52:36;98068.47;;;17.89;100.00
56182;BME280;51963;46.052;14.544;2023-05-21T06:55:04;98060.69;;;18.05;100.00
56182;BME280;51963;46.052;14.544;2023-05-21T06:57:51;98068.28;;;18.30;100.00
56182;BME280;51963;46.052;14.544;2023-05-21T07:00:17;98056.94;;;18.40;100.00
56182;BME280;51963;46.052;14.544;2023-05-21T07:02:43;98058.28;;;19.04;100.00
56182;BME280;51963;46.052;14.544;2023-05-21T07:05:09;98066.59;;;19.30;100.00
56182;BME280;51963;46.052;14.544;2023-05-21T07:07:34;98053.13;;;19.47;100.00
56182;BME280;51963;46.052;14.544;2023-05-21T07:10:01;98047.34;;;19.93;99.53
56182;BME280;51963;46.052;14.544;2023-05-21T07:12:27;98065.34;;;20.35;99.63
56182;BME280;51963;46.052;14.544;2023-05-21T07:14:52;98062.25;;;20.59;93.53
56182;BME280;51963;46.052;14.544;2023-05-21T07:17:22;98066.00;;;21.06;92.68
56182;BME280;51963;46.052;14.544;2023-05-21T07:19:47;98040.53;;;21.24;89.79
56182;BME280;51963;46.052;14.544;2023-05-21T07:22:13;98036.94;;;20.98;87.55
56182;BME280;51963;46.052;14.544;2023-05-21T07:24:39;98042.38;;;21.19;86.94
56182;BME280;51963;46.052;14.544;2023-05-21T07:27:05;98044.38;;;21.65;85.10
56182;BME280;51963;46.052;14.544;2023-05-21T07:29:34;98022.81;;;21.39;83.34
56182;BME280;51963;46.052;14.544;2023-05-21T07:32:00;98051.06;;;22.14;82.19
56182;BME280;51963;46.052;14.544;2023-05-21T07:34:25;98037.31;;;22.36;74.08
56182;BME280;51963;46.052;14.544;2023-05-21T07:36:51;98046.91;;;22.74;72.89
56182;BME280;51963;46.052;14.544;2023-05-21T07:39:17;98055.53;;;22.70;69.63
56182;BME280;51963;46.052;14.544;2023-05-21T07:41:43;98039.34;;;22.76;67.30
56182;BME280;51963;46.052;14.544;2023-05-21T07:44:09;98055.00;;;22.74;67.53
56182;BME280;51963;46.052;14.544;2023-05-21T07:46:39;98054.88;;;22.99;66.65
56182;BME280;51963;46.052;14.544;2023-05-21T07:49:04;98057.59;;;22.94;67.40
56182;BME280;51963;46.052;14.544;2023-05-21T07:51:32;98056.22;;;23.52;63.63
56182;BME280;51963;46.052;14.544;2023-05-21T07:53:58;98059.22;;;23.85;63.59
56182;BME280;51963;46.052;14.544;2023-05-21T07:56:30;98055.03;;;23.69;61.65
56182;BME280;51963;46.052;14.544;2023-05-21T07:58:57;98061.22;;;23.69;59.79
56182;BME280;51963;46.052;14.544;2023-05-21T08:01:24;98032.69;;;23.93;59.15
56182;BME280;51963;46.052;14.544;2023-05-21T08:03:52;98055.06;;;23.98;58.79
56182;BME280;51963;46.052;14.544;2023-05-21T08:06:18;98058.56;;;23.99;58.06
56182;BME280;51963;46.052;14.544;2023-05-21T08:08:44;98038.03;;;24.03;56.71
56182;BME280;51963;46.052;14.544;2023-05-21T08:11:10;98062.94;;;24.78;53.52
56182;BME280;51963;46.052;14.544;2023-05-21T08:13:36;98057.75;;;24.57;52.92
56182;BME280;51963;46.052;14.544;2023-05-21T08:16:04;98049.88;;;24.85;53.22
56182;BME280;51963;46.052;14.544;2023-05-21T08:18:30;98053.81;;;24.93;52.25
56182;BME280;51963;46.052;14.544;2023-05-21T08:20:56;98049.75;;;24.71;52.00
56182;BME280;51963;46.052;14.544;2023-05-21T08:23:23;98063.16;;;24.82;52.03
56182;BME280;51963;46.052;14.544;2023-05-21T08:25:54;98053.22;;;25.21;52.26
56182;BME280;51963;46.052;14.544;2023-05-21T08:28:21;98043.47;;;25.19;52.92
56182;BME280;51963;46.052;14.544;2023-05-21T08:30:47;98055.69;;;25.74;51.87
56182;BME280;51963;46.052;14.544;2023-05-21T08:33:14;98040.84;;;25.33;50.10
56182;BME280;51963;46.052;14.544;2023-05-21T08:35:42;98062.59;;;25.47;49.54
56182;BME280;51963;46.052;14.544;2023-05-21T08:38:18;98063.44;;;25.43;50.05
56182;BME280;51963;46.052;14.544;2023-05-21T08:40:54;98056.34;;;25.47;49.90
56182;BME280;51963;46.052;14.544;2023-05-21T08:43:20;98068.47;;;25.30;52.80
56182;BME280;51963;46.052;14.544;2023-05-21T08:45:56;98059.25;;;25.31;51.36
56182;BME280;51963;46.052;14.544;2023-05-21T08:48:29;98065.69;;;25.36;52.08
56182;BME280;51963;46.052;14.544;2023-05-21T08:50:57;98066.09;;;25.48;49.06
56182;BME280;51963;46.052;14.544;2023-05-21T08:53:28;98043.94;;;25.46;48.06
56182;BME280;51963;46.052;14.544;2023-05-21T08:55:58;98059.84;;;25.67;48.75
56182;BME280;51963;46.052;14.544;2023-05-21T08:58:50;98070.34;;;25.87;48.25
56182;BME280;51963;46.052;14.544;2023-05-21T09:01:20;98070.13;;;26.64;49.77
56182;BME280;51963;46.052;14.544;2023-05-21T09:03:55;98063.50;;;26.98;44.45
56182;BME280;51963;46.052;14.544;2023-05-21T09:06:22;98055.19;;;25.53;47.29
56182;BME280;51963;46.052;14.544;2023-05-21T09:09:00;98072.09;;;26.44;45.67
56182;BME280;51963;46.052;14.544;2023-05-21T09:11:35;98062.63;;;26.89;45.45
56182;BME280;51963;46.052;14.544;2023-05-21T09:14:01;98052.66;;;26.56;46.96
56182;BME280;51963;46.052;14.544;2023-05-21T09:16:47;98041.50;;;25.97;44.52
56182;BME280;51963;46.052;14.544;2023-05-21T09:19:13;98063.31;;;25.86;45.52
56182;BME280;51963;46.052;14.544;2023-05-21T09:21:39;98053.84;;;25.70;46.91
56182;BME280;51963;46.052;14.544;2023-05-21T09:24:13;98062.56;;;26.33;45.36
56182;BME280;51963;46.052;14.544;2023-05-21T09:26:43;98056.47;;;26.69;44.85
56182;BME280;51963;46.052;14.544;2023-05-21T09:29:09;98058.63;;;25.59;45.54
56182;BME280;51963;46.052;14.544;2023-05-21T09:31:44;98057.00;;;25.39;46.22
56182;BME280;51963;46.052;14.544;2023-05-21T09:34:11;98052.59;;;26.14;46.19
56182;BME280;51963;46.052;14.544;2023-05-21T09:36:39;98053.59;;;26.18;44.03
56182;BME280;51963;46.052;14.544;2023-05-21T09:39:05;98053.22;;;26.39;45.10
56182;BME280;51963;46.052;14.544;2023-05-21T09:41:32;98053.28;;;26.95;43.34
56182;BME280;51963;46.052;14.544;2023-05-21T09:44:02;98051.41;;;27.78;40.40
56182;BME280;51963;46.052;14.544;2023-05-21T09:46:39;98053.38;;;27.27;42.18
56182;BME280;51963;46.052;14.544;2023-05-21T09:49:06;98056.47;;;26.55;43.46
56182;BME280;51963;46.052;14.544;2023-05-21T09:51:32;98064.91;;;26.68;43.25
56182;BME280;51963;46.052;14.544;2023-05-21T09:53:57;98051.16;;;26.64;42.62
56182;BME280;51963;46.052;14.544;2023-05-21T09:56:27;98049.84;;;26.75;43.72
56182;BME280;51963;46.052;14.544;2023-05-21T09:58:58;98042.59;;;27.13;41.33
56182;BME280;51963;46.052;14.544;2023-05-21T10:01:25;98042.63;;;28.04;39.42
56182;BME280;51963;46.052;14.544;2023-05-21T10:03:56;98052.56;;;26.75;41.08
56182;BME280;51963;46.052;14.544;2023-05-21T10:06:26;98055.38;;;27.49;41.35
56182;BME280;51963;46.052;14.544;2023-05-21T10:08:58;98035.50;;;28.48;38.32
56182;BME280;51963;46.052;14.544;2023-05-21T10:11:26;98031.03;;;27.89;39.44
56182;BME280;51963;46.052;14.544;2023-05-21T10:13:54;98049.63;;;27.73;38.94
56182;BME280;51963;46.052;14.544;2023-05-21T10:16:21;98033.75;;;27.07;39.50
56182;BME280;51963;46.052;14.544;2023-05-21T10:18:47;98031.56;;;26.95;41.61
56182;BME280;51963;46.052;14.544;2023-05-21T10:21:14;98039.06;;;27.94;38.70
56182;BME280;51963;46.052;14.544;2023-05-21T10:23:41;98046.25;;;27.67;38.52
56182;BME280;51963;46.052;14.544;2023-05-21T10:26:08;98027.84;;;27.87;39.15
56182;BME280;51963;46.052;14.544;2023-05-21T10:28:35;98031.53;;;28.14;37.92
56182;BME280;51963;46.052;14.544;2023-05-21T10:31:01;98038.56;;;28.55;38.22
56182;BME280;51963;46.052;14.544;2023-05-21T10:33:28;98033.09;;;29.05;37.11
56182;BME280;51963;46.052;14.544;2023-05-21T10:35:57;98041.50;;;27.36;39.40
56182;BME280;51963;46.052;14.544;2023-05-21T10:38:23;98035.50;;;28.57;37.50
56182;BME280;51963;46.052;14.544;2023-05-21T10:40:49;98038.59;;;29.58;37.66
56182;BME280;51963;46.052;14.544;2023-05-21T10:43:33;98027.31;;;29.85;35.00
56182;BME280;51963;46.052;14.544;2023-05-21T10:46:28;98040.75;;;31.92;32.59
56182;BME280;51963;46.052;14.544;2023-05-21T10:59:52;98039.69;;;32.68;31.53
56182;BME280;51963;46.052;14.544;2023-05-21T11:02:18;98021.47;;;32.59;30.34
56182;BME280;51963;46.052;14.544;2023-05-21T11:04:46;98044.53;;;31.79;30.44
56182;BME280;51963;46.052;14.544;2023-05-21T11:07:14;98050.59;;;32.18;30.13
56182;BME280;51963;46.052;14.544;2023-05-21T11:09:49;98038.78;;;32.76;29.24
56182;BME280;51963;46.052;14.544;2023-05-21T11:12:14;98044.94;;;32.98;29.65
56182;BME280;51963;46.052;14.544;2023-05-21T11:14:55;98025.81;;;31.35;33.12
56182;BME280;51963;46.052;14.544;2023-05-21T11:17:39;98032.94;;;30.37;34.28
56182;BME280;51963;46.052;14.544;2023-05-21T11:20:10;98025.44;;;29.33;37.06
56182;BME280;51963;46.052;14.544;2023-05-21T11:22:36;98025.00;;;28.73;38.10
56182;BME280;51963;46.052;14.544;2023-05-21T11:25:02;98018.53;;;30.27;34.70
56182;BME280;51963;46.052;14.544;2023-05-21T11:27:36;98003.53;;;30.81;35.17
56182;BME280;51963;46.052;14.544;2023-05-21T11:30:03;98025.78;;;31.56;33.05
56182;BME280;51963;46.052;14.544;2023-05-21T11:32:29;98024.44;;;32.54;31.54
56182;BME280;51963;46.052;14.544;2023-05-21T11:34:59;98019.84;;;32.21;32.54
56182;BME280;51963;46.052;14.544;2023-05-21T11:37:29;98025.50;;;32.03;32.99
56182;BME280;51963;46.052;14.544;2023-05-21T11:39:55;98028.09;;;29.86;34.29
56182;BME280;51963;46.052;14.544;2023-05-21T11:42:31;98030.56;;;28.19;38.21
56182;BME280;51963;46.052;14.544;2023-05-21T11:44:58;98025.81;;;27.70;39.88
56182;BME280;51963;46.052;14.544;2023-05-21T11:47:26;98016.63;;;28.43;38.73
56182;BME280;51963;46.052;14.544;2023-05-21T11:49:52;98037.41;;;27.62;38.63
56182;BME280;51963;46.052;14.544;2023-05-21T11:52:18;98043.56;;;28.71;36.62
56182;BME280;51963;46.052;14.544;2023-05-21T11:54:46;98027.38;;;31.14;32.44
56182;BME280;51963;46.052;14.544;2023-05-21T11:57:13;98016.75;;;32.23;30.04
56182;BME280;51963;46.052;14.544;2023-05-21T11:59:41;98027.34;;;29.24;35.49
56182;BME280;51963;46.052;14.544;2023-05-21T12:02:07;98033.69;;;31.91;31.37
56182;BME280;51963;46.052;14.544;2023-05-21T12:04:34;98022.53;;;29.03;32.53
56182;BME280;51963;46.052;14.544;2023-05-21T12:07:06;97998.44;;;32.60;27.37
56182;BME280;51963;46.052;14.544;2023-05-21T12:09:50;98014.72;;;29.46;31.83
56182;BME280;51963;46.052;14.544;2023-05-21T12:12:18;98016.38;;;29.94;32.75
56182;BME280;51963;46.052;14.544;2023-05-21T12:14:45;98000.44;;;29.13;35.71
56182;BME280;51963;46.052;14.544;2023-05-21T12:17:15;98014.66;;;32.07;30.36
56182;BME280;51963;46.052;14.544;2023-05-21T12:19:41;98015.22;;;33.12;27.58
56182;BME280;51963;46.052;14.544;2023-05-21T12:22:08;98002.34;;;31.12;29.54
56182;BME280;51963;46.052;14.544;2023-05-21T12:24:35;97993.41;;;31.45;29.05
56182;BME280;51963;46.052;14.544;2023-05-21T12:27:01;97998.47;;;30.71;30.13
56182;BME280;51963;46.052;14.544;2023-05-21T12:29:32;98006.19;;;30.69;30.72
56182;BME280;51963;46.052;14.544;2023-05-21T12:32:00;98003.63;;;33.31;27.81
56182;BME280;51963;46.052;14.544;2023-05-21T12:37:23;97992.75;;;34.24;27.47
56182;BME280;51963;46.052;14.544;2023-05-21T12:39:53;98003.34;;;31.50;31.02
56182;BME280;51963;46.052;14.544;2023-05-21T12:42:24;97997.38;;;32.90;29.34
56182;BME280;51963;46.052;14.544;2023-05-21T12:44:52;97985.28;;;32.04;30.48
56182;BME280;51963;46.052;14.544;2023-05-21T12:47:22;97990.50;;;29.35;34.85
56182;BME280;51963;46.052;14.544;2023-05-21T12:49:47;97984.00;;;28.43;35.56
56182;BME280;51963;46.052;14.544;2023-05-21T12:52:14;97976.22;;;28.68;36.95
56182;BME280;51963;46.052;14.544;2023-05-21T12:54:44;97957.66;;;27.49;37.60
56182;BME280;51963;46.052;14.544;2023-05-21T12:57:19;97985.13;;;27.11;39.91
56182;BME280;51963;46.052;14.544;2023-05-21T13:02:19;97966.91;;;26.46;39.50
56182;BME280;51963;46.052;14.544;2023-05-21T13:04:50;97962.19;;;27.17;39.83
56182;BME280;51963;46.052;14.544;2023-05-21T13:07:18;97973.78;;;27.77;38.82